Time;durP1;ratioP1;P1;durP2;ratioP2;P2;SDS_P1;SDS_P2;PMS_P1;PMS_P2;Temp;Humidity;BMP_temperature;BMP_pressure;BME280_temperature;BME280_humidity;BME280_pressure;Samples;Min_cycle;Max_cycle;Signal;HPM_P1;HPM_P2
2023/02/09 00:00:47;;;;;;;49.60;30.30;;;;;;;-2.67;100.00;104252.00;2071941;28;20227;-64
2023/02/09 00:01:47;;;;;;;57.38;30.20;;;;;;;-2.72;100.00;104244.63;2071849;28;20291;-64
2023/02/09 00:02:47;;;;;;;60.90;30.60;;;;;;;-2.68;100.00;104251.19;2072292;28;20199;-64
2023/02/09 00:03:48;;;;;;;51.67;30.53;;;;;;;-2.64;100.00;104249.59;2067044;28;20192;-64
2023/02/09 00:04:48;;;;;;;47.90;30.60;;;;;;;-2.67;100.00;104244.66;2073484;28;20181;-64
2023/02/09 00:05:49;;;;;;;48.47;32.17;;;;;;;-2.66;100.00;104265.34;2073320;28;20212;-64
2023/02/09 00:06:49;;;;;;;49.70;33.20;;;;;;;-3.07;100.00;104200.00;2068303;28;20187;-64
2023/02/09 00:07:50;;;;;;;47.13;33.87;;;;;;;-3.17;100.00;104218.88;2073026;28;20352;-64
2023/02/09 00:08:51;;;;;;;48.77;31.90;;;;;;;-2.94;100.00;104253.88;2073328;28;20195;-64
2023/02/09 00:09:51;;;;;;;51.50;34.55;;;;;;;-4.05;100.00;104074.63;2073035;28;20227;-64
2023/02/09 00:10:52;;;;;;;49.83;33.13;;;;;;;-3.15;100.00;104225.69;2072005;28;20215;-64
2023/02/09 00:13:44;;;;;;;50.22;32.15;;;;;;;-4.04;100.00;104038.34;2072610;28;20209;-64
2023/02/09 00:14:38;;;;;;;49.33;31.05;;;;;;;-2.74;100.00;104246.78;2073003;28;20200;-64
2023/02/09 00:15:39;;;;;;;54.13;34.37;;;;;;;-2.76;100.00;104246.22;2072114;28;20264;-64
2023/02/09 00:16:40;;;;;;;50.20;34.50;;;;;;;-2.93;100.00;104222.97;2073297;28;20197;-64
2023/02/09 00:17:40;;;;;;;50.33;33.90;;;;;;;-3.01;100.00;104232.38;2072886;28;20220;-64
2023/02/09 00:18:40;;;;;;;50.30;33.43;;;;;;;-3.18;100.00;104217.25;2073374;28;20267;-64
2023/02/09 00:19:41;;;;;;;54.07;34.00;;;;;;;-2.97;100.00;104243.53;2072387;28;20197;-64
2023/02/09 00:20:41;;;;;;;55.37;35.73;;;;;;;-2.95;100.00;104249.50;2073030;28;20710;-64
2023/02/09 00:21:42;;;;;;;52.53;34.13;;;;;;;-2.90;100.00;104246.84;2072718;28;20284;-64
2023/02/09 00:22:42;;;;;;;50.83;33.57;;;;;;;-2.96;100.00;104234.31;2072916;28;20249;-64
2023/02/09 00:23:43;;;;;;;53.10;34.80;;;;;;;-2.85;100.00;104246.91;2073051;28;20183;-64
2023/02/09 00:24:43;;;;;;;51.30;33.47;;;;;;;-2.99;100.00;104226.69;2072640;28;20195;-64
2023/02/09 00:25:44;;;;;;;50.67;34.47;;;;;;;-3.04;100.00;104216.59;2072752;28;20261;-65
2023/02/09 00:26:45;;;;;;;49.97;33.83;;;;;;;-2.89;100.00;104245.78;2072454;28;20570;-64
2023/02/09 00:27:45;;;;;;;54.13;35.47;;;;;;;-2.88;100.00;104247.44;2072969;28;20181;-64
2023/02/09 00:28:45;;;;;;;55.20;35.87;;;;;;;-2.89;100.00;104259.34;2073131;28;20184;-64
2023/02/09 00:29:46;;;;;;;53.00;35.80;;;;;;;-3.19;100.00;104205.56;2065713;28;20193;-64
2023/02/09 00:30:46;;;;;;;54.10;34.50;;;;;;;-2.89;100.00;104243.91;2070395;28;20222;-64
2023/02/09 00:31:47;;;;;;;53.23;35.03;;;;;;;-3.46;100.00;104161.31;2073218;28;20184;-64
2023/02/09 00:32:48;;;;;;;55.10;36.13;;;;;;;-2.72;100.00;104247.34;2072476;28;20203;-64
2023/02/09 00:33:48;;;;;;;52.13;34.37;;;;;;;-3.13;100.00;104169.25;2072593;28;20195;-64
2023/02/09 00:34:49;;;;;;;53.33;34.53;;;;;;;-2.78;100.00;104242.13;2073193;28;20253;-64
2023/02/09 00:35:50;;;;;;;54.23;35.73;;;;;;;-2.96;100.00;104221.56;2072778;28;20180;-64
2023/02/09 00:36:50;;;;;;;56.50;36.07;;;;;;;-2.66;100.00;104250.94;2073461;28;20241;-64
2023/02/09 00:37:51;;;;;;;53.70;37.17;;;;;;;-2.67;100.00;104241.16;2071920;28;20681;-64
2023/02/09 00:38:51;;;;;;;57.00;36.80;;;;;;;-2.79;100.00;104227.72;2073152;28;20214;-64
2023/02/09 00:39:51;;;;;;;57.30;37.50;;;;;;;-2.72;100.00;104232.94;2073053;28;20240;-64
2023/02/09 00:40:52;;;;;;;59.77;37.47;;;;;;;-4.23;100.00;103988.25;2072400;28;20188;-64
2023/02/09 00:42:04;;;;;;;57.67;37.00;;;;;;;-2.66;100.00;104232.75;2072608;28;20179;-64
2023/02/09 00:43:06;;;;;;;52.47;35.55;;;;;;;-3.14;100.00;104158.69;2072315;28;20197;-64
2023/02/09 00:44:07;;;;;;;52.03;33.55;;;;;;;-3.06;100.00;104155.50;2072883;28;20219;-64
2023/02/09 00:45:08;;;;;;;56.33;36.33;;;;;;;-3.17;100.00;104137.47;2072844;28;20193;-64
2023/02/09 00:46:09;;;;;;;58.05;37.28;;;;;;;-2.60;100.00;104217.31;2072991;28;20204;-64
2023/02/09 00:47:09;;;;;;;62.30;37.50;;;;;;;-2.51;100.00;104230.16;2072841;28;20188;-64
2023/02/09 00:48:09;;;;;;;56.53;36.77;;;;;;;-2.46;100.00;104226.69;2072828;28;20720;-64
2023/02/09 00:49:10;;;;;;;58.53;36.90;;;;;;;-2.57;100.00;104205.94;2073091;28;20409;-64
2023/02/09 00:50:10;;;;;;;55.57;35.50;;;;;;;-2.38;100.00;104226.19;2071950;28;20213;-64
2023/02/09 00:51:11;;;;;;;54.17;34.63;;;;;;;-3.20;100.00;104097.28;2072177;28;20200;-64
2023/02/09 00:52:11;;;;;;;53.13;33.50;;;;;;;-2.43;100.00;104202.53;2072894;28;20199;-64
2023/02/09 00:53:11;;;;;;;53.70;31.63;;;;;;;-2.31;100.00;104229.53;2072314;28;20177;-64
2023/02/09 00:54:13;;;;;;;51.87;31.70;;;;;;;-2.51;100.00;104213.06;2072663;28;20183;-64
2023/02/09 00:55:13;;;;;;;53.35;32.50;;;;;;;-2.37;100.00;104225.16;2073294;28;20177;-64
2023/02/09 00:56:14;;;;;;;57.07;34.03;;;;;;;-2.52;100.00;104201.38;2072661;28;20286;-64
2023/02/09 00:57:14;;;;;;;54.13;34.13;;;;;;;-3.14;100.00;104107.94;2072530;28;20234;-64
2023/02/09 00:58:16;;;;;;;56.00;36.07;;;;;;;-2.75;100.00;104201.72;2073025;28;20192;-64
2023/02/09 00:59:16;;;;;;;52.58;36.28;;;;;;;-2.52;100.00;104223.09;2072811;28;20657;-64
2023/02/09 01:00:19;;;;;;;53.53;35.77;;;;;;;-2.62;100.00;104205.91;2071692;28;20281;-64
2023/02/09 01:01:19;;;;;;;57.50;37.50;;;;;;;-2.57;100.00;104225.75;2069715;28;20176;-64
2023/02/09 01:02:20;;;;;;;55.13;36.07;;;;;;;-2.79;100.00;104191.59;2068072;28;20188;-64
2023/02/09 01:03:20;;;;;;;55.03;35.90;;;;;;;-2.76;100.00;104200.06;2064107;28;20213;-64
2023/02/09 01:04:21;;;;;;;52.70;34.70;;;;;;;-2.60;100.00;104226.28;2065288;28;20571;-64
2023/02/09 01:05:21;;;;;;;49.60;34.50;;;;;;;-2.61;100.00;104223.81;2070416;28;20207;-64
2023/02/09 01:06:22;;;;;;;53.27;33.23;;;;;;;-2.70;100.00;104198.22;2073155;28;20210;-64
2023/02/09 01:07:22;;;;;;;51.67;33.27;;;;;;;-2.52;100.00;104225.00;2071884;28;20224;-64
2023/02/09 01:08:23;;;;;;;52.50;34.43;;;;;;;-2.52;100.00;104225.81;2072273;28;20806;-64
2023/02/09 01:09:23;;;;;;;57.00;36.10;;;;;;;-2.51;100.00;104221.22;2071182;28;20188;-64
2023/02/09 01:10:24;;;;;;;52.83;34.50;;;;;;;-3.37;100.00;104081.13;2071958;28;20674;-64
2023/02/09 01:11:26;;;;;;;50.67;34.67;;;;;;;-2.92;100.00;104140.44;2063602;28;20242;-64
2023/02/09 01:12:27;;;;;;;59.10;38.88;;;;;;;-2.48;100.00;104213.34;2069557;28;20267;-64
2023/02/09 01:13:28;;;;;;;52.40;34.87;;;;;;;-2.48;100.00;104212.53;2071414;28;20207;-64
2023/02/09 01:14:28;;;;;;;52.20;34.77;;;;;;;-2.53;100.00;104210.59;2066007;28;20213;-64
2023/02/09 01:15:28;;;;;;;50.83;34.80;;;;;;;-2.48;100.00;104221.50;2068312;28;20253;-64
2023/02/09 01:16:30;;;;;;;53.00;35.67;;;;;;;-2.45;100.00;104212.84;2063338;28;20198;-64
2023/02/09 01:17:30;;;;;;;51.47;34.90;;;;;;;-2.38;100.00;104213.44;2067540;28;20760;-64
2023/02/09 01:18:32;;;;;;;49.20;34.27;;;;;;;-2.70;100.00;104173.78;2072255;28;20662;-64
2023/02/09 01:19:33;;;;;;;45.50;32.08;;;;;;;-2.34;100.00;104217.28;2071320;28;20195;-64
2023/02/09 01:20:34;;;;;;;50.35;33.47;;;;;;;-2.71;100.00;104162.13;2064274;28;20252;-64
2023/02/09 01:21:35;;;;;;;57.08;34.25;;;;;;;-2.48;100.00;104216.06;2065679;28;20284;-64
2023/02/09 01:22:36;;;;;;;48.90;33.43;;;;;;;-2.86;100.00;104148.41;2071666;28;20716;-64
2023/02/09 01:23:36;;;;;;;52.70;34.90;;;;;;;-2.40;100.00;104210.19;2066263;28;20239;-64
2023/02/09 01:24:39;;;;;;;55.13;34.87;;;;;;;-2.58;100.00;104190.75;2064451;28;20279;-64
2023/02/09 01:25:39;;;;;;;52.60;35.13;;;;;;;-2.61;100.00;104172.22;2067481;28;20188;-64
2023/02/09 01:26:40;;;;;;;51.83;36.37;;;;;;;-2.35;100.00;104212.94;2070566;28;20760;-64
2023/02/09 01:27:41;;;;;;;56.42;35.63;;;;;;;-3.05;100.00;104111.84;2067985;28;20679;-64
2023/02/09 01:28:42;;;;;;;61.50;37.93;;;;;;;-2.38;100.00;104201.75;2064260;28;20184;-64
2023/02/09 01:29:43;;;;;;;57.50;35.80;;;;;;;-2.33;100.00;104205.34;2064776;28;20188;-64
2023/02/09 01:30:43;;;;;;;53.27;35.73;;;;;;;-2.36;100.00;104210.47;2064036;28;20212;-64
2023/02/09 01:31:44;;;;;;;52.87;35.23;;;;;;;-2.45;100.00;104214.75;2064317;28;20196;-64
2023/02/09 01:32:45;;;;;;;52.25;33.45;;;;;;;-2.60;100.00;104180.13;2065576;28;20188;-64
2023/02/09 01:33:45;;;;;;;52.93;34.00;;;;;;;-2.37;100.00;104215.09;2064063;28;20346;-64
2023/02/09 01:34:50;;;;;;;46.33;30.47;;;;;;;-2.28;100.00;104218.13;2064219;28;20201;-64
2023/02/09 01:35:56;;;;;;;47.65;33.55;;;;;;;-2.29;100.00;104213.78;2066535;28;20182;-64
2023/02/09 01:36:56;;;;;;;49.45;32.58;;;;;;;-2.30;100.00;104209.44;2072230;28;20174;-64
2023/02/09 01:37:56;;;;;;;45.00;31.20;;;;;;;-2.31;100.00;104210.53;2070976;28;20671;-64
2023/02/09 01:38:59;;;;;;;46.77;30.63;;;;;;;-2.29;100.00;104211.06;2064948;28;20190;-64
2023/02/09 01:40:00;;;;;;;46.55;31.08;;;;;;;-2.34;100.00;104211.84;2064654;28;20659;-64
2023/02/09 01:41:01;;;;;;;45.25;30.88;;;;;;;-2.31;100.00;104203.16;2070217;28;20652;-64
2023/02/09 01:42:02;;;;;;;47.47;31.63;;;;;;;-3.48;100.00;104005.34;2068296;28;20561;-64
2023/02/09 01:43:03;;;;;;;43.35;29.40;;;;;;;-2.45;100.00;104193.00;2071451;28;20198;-65
2023/02/09 01:44:25;;;;;;;44.10;29.80;;;;;;;-2.30;100.00;104201.28;2068684;28;20196;-64
2023/02/09 01:45:44;;;;;;;44.90;29.23;;;;;;;-2.29;100.00;104197.47;2065545;28;20210;-64
2023/02/09 01:46:45;;;;;;;45.40;29.80;;;;;;;-2.44;100.00;104191.94;2065173;28;20199;-64
2023/02/09 01:47:59;;;;;;;45.20;29.93;;;;;;;-2.56;100.00;104172.28;2068911;28;20286;-64
2023/02/09 01:49:11;;;;;;;46.03;28.67;;;;;;;-2.38;100.00;104196.31;2065253;28;20196;-64
2023/02/09 01:50:12;;;;;;;49.05;28.83;;;;;;;-2.33;100.00;104199.91;2065894;28;20664;-64
2023/02/09 01:51:13;;;;;;;45.20;28.67;;;;;;;-2.34;100.00;104198.28;2070085;28;20189;-64
2023/02/09 01:52:19;;;;;;;46.30;29.48;;;;;;;-2.73;100.00;104139.00;2068083;28;20259;-64
2023/02/09 01:53:20;;;;;;;42.45;28.90;;;;;;;-2.32;100.00;104196.09;2068353;28;20187;-64
2023/02/09 01:54:28;;;;;;;42.40;28.05;;;;;;;-2.31;100.00;104199.66;2069253;28;20682;-64
2023/02/09 01:55:32;;;;;;;40.88;28.00;;;;;;;-2.29;100.00;104200.19;2069812;28;20183;-64
2023/02/09 01:56:36;;;;;;;37.53;26.52;;;;;;;-2.33;100.00;104190.94;2064050;28;20186;-64
2023/02/09 01:57:41;;;;;;;38.30;26.63;;;;;;;-2.31;100.00;104189.59;2066201;28;20176;-64
2023/02/09 01:58:43;;;;;;;40.13;26.85;;;;;;;-2.34;100.00;104195.56;2070225;28;20199;-64
2023/02/09 01:59:46;;;;;;;38.05;26.60;;;;;;;-2.36;100.00;104197.69;2072028;28;20175;-64
2023/02/09 02:00:48;;;;;;;37.88;26.10;;;;;;;-2.88;100.00;104125.31;2063840;28;20191;-64
2023/02/09 02:01:49;;;;;;;42.30;25.38;;;;;;;-2.56;100.00;104173.13;2063593;28;20196;-64
2023/02/09 02:02:56;;;;;;;41.10;26.52;;;;;;;-2.97;100.00;104114.06;2070415;28;20273;-64
2023/02/09 02:03:57;;;;;;;39.15;25.67;;;;;;;-2.86;100.00;104106.84;2066676;28;20211;-64
2023/02/09 02:04:57;;;;;;;39.53;25.40;;;;;;;-3.16;100.00;104072.13;2064342;28;20202;-64
2023/02/09 02:06:04;;;;;;;37.63;26.00;;;;;;;-2.29;100.00;104197.47;2065767;28;20198;-64
2023/02/09 02:07:13;;;;;;;41.58;27.00;;;;;;;-2.38;100.00;104183.56;2068955;28;20205;-64
2023/02/09 02:08:21;;;;;;;38.63;25.75;;;;;;;-2.84;100.00;104101.97;2069835;28;20208;-64
2023/02/09 02:09:21;;;;;;;40.70;26.42;;;;;;;-2.86;100.00;104112.28;2069155;28;21094;-64
2023/02/09 02:10:23;;;;;;;40.73;26.57;;;;;;;-2.35;100.00;104188.50;2065226;28;20240;-64
2023/02/09 02:11:27;;;;;;;37.80;25.90;;;;;;;-2.72;100.00;104137.94;2063689;28;20710;-64
2023/02/09 02:12:28;;;;;;;38.20;26.33;;;;;;;-2.48;100.00;104188.06;2065926;28;20188;-64
2023/02/09 02:13:28;;;;;;;37.70;25.92;;;;;;;-2.60;100.00;104166.56;2070969;28;20557;-64
2023/02/09 02:14:34;;;;;;;42.10;27.87;;;;;;;-2.43;100.00;104190.84;2069080;28;20207;-64
2023/02/09 02:15:59;;;;;;;38.22;26.25;;;;;;;-2.39;100.00;104187.38;2071418;28;20272;-64
2023/02/09 02:17:21;;;;;;;38.03;25.33;;;;;;;-2.42;100.00;104187.88;2072674;28;20195;-64
2023/02/09 02:18:39;;;;;;;44.05;26.65;;;;;;;-2.43;100.00;104185.41;2066390;28;20179;-64
2023/02/09 02:20:17;;;;;;;40.28;27.02;;;;;;;-2.84;100.00;104134.53;2063844;28;20179;-64
2023/02/09 02:21:30;;;;;;;39.10;25.50;;;;;;;-2.55;100.00;104177.47;2069980;28;20782;-64
2023/02/09 02:22:52;;;;;;;37.67;25.50;;;;;;;-2.66;100.00;104175.72;2068131;28;20251;-64
2023/02/09 02:24:14;;;;;;;43.53;27.77;;;;;;;-2.67;100.00;104173.28;2064463;28;20172;-64
2023/02/09 02:25:38;;;;;;;42.05;27.35;;;;;;;-2.67;100.00;104171.34;2063644;28;20908;-64
2023/02/09 02:26:55;;;;;;;41.35;27.00;;;;;;;-2.63;100.00;104177.13;2069369;28;20207;-64
2023/02/09 02:28:15;;;;;;;42.72;27.42;;;;;;;-2.60;100.00;104173.88;2067491;28;20182;-64
2023/02/09 02:29:43;;;;;;;43.00;27.33;;;;;;;-2.57;100.00;104179.59;2064010;28;20570;-64
2023/02/09 02:31:03;;;;;;;41.50;27.67;;;;;;;-2.54;100.00;104176.38;2069736;28;20207;-64
2023/02/09 02:32:10;;;;;;;39.50;27.35;;;;;;;-2.57;100.00;104171.44;2064728;28;20168;-64
2023/02/09 02:33:44;;;;;;;47.90;28.02;;;;;;;-2.48;100.00;104178.06;2069140;28;20187;-64
2023/02/09 02:34:52;;;;;;;48.50;28.45;;;;;;;-2.82;100.00;104124.25;2069640;28;20594;-64
2023/02/09 02:36:30;;;;;;;46.47;28.20;;;;;;;-2.49;100.00;104176.41;2068538;28;20693;-64
2023/02/09 02:37:36;;;;;;;42.95;26.63;;;;;;;-2.62;100.00;104157.03;2070748;28;20589;-64
2023/02/09 02:38:57;;;;;;;41.30;26.80;;;;;;;-3.01;100.00;104099.41;2070518;28;20689;-64
2023/02/09 02:40:21;;;;;;;40.72;27.17;;;;;;;-2.58;100.00;104179.88;2063840;28;20239;-64
2023/02/09 02:42:47;;;;;;;41.60;27.70;;;;;;;-2.59;100.00;104168.19;2062810;28;20177;-65
2023/02/09 02:43:42;;;;;;;39.25;25.77;;;;;;;-2.62;100.00;104168.69;2069883;28;20202;-64
2023/02/09 02:44:47;;;;;;;39.45;25.67;;;;;;;-2.82;100.00;104154.94;2063474;28;20184;-64
2023/02/09 02:45:55;;;;;;;39.30;27.25;;;;;;;-2.74;100.00;104165.34;2064243;28;20732;-64
2023/02/09 02:47:02;;;;;;;42.03;27.88;;;;;;;-2.87;100.00;104170.38;2070775;28;20284;-64
2023/02/09 02:48:14;;;;;;;44.92;29.48;;;;;;;-2.96;100.00;104166.47;2070829;28;20190;-64
2023/02/09 02:49:30;;;;;;;41.25;28.60;;;;;;;-3.07;100.00;104165.56;2070270;28;20667;-65
2023/02/09 02:50:33;;;;;;;47.90;28.98;;;;;;;-3.02;100.00;104162.06;2070286;28;20305;-64
2023/02/09 02:51:44;;;;;;;40.85;27.98;;;;;;;-2.97;100.00;104156.69;2069882;28;20291;-64
2023/02/09 02:52:47;;;;;;;42.63;28.95;;;;;;;-2.91;100.00;104158.38;2069804;28;20186;-64
2023/02/09 02:53:52;;;;;;;51.88;29.42;;;;;;;-2.82;100.00;104154.13;2070195;28;20193;-64
2023/02/09 02:55:01;;;;;;;56.28;28.90;;;;;;;-2.75;100.00;104160.16;2067481;28;20188;-64
2023/02/09 02:56:09;;;;;;;45.13;27.98;;;;;;;-2.99;100.00;104134.44;2062929;28;20194;-64
2023/02/09 02:57:19;;;;;;;56.78;27.83;;;;;;;-2.78;100.00;104155.25;2069380;28;20289;-65
2023/02/09 02:58:22;;;;;;;54.88;27.25;;;;;;;-3.21;100.00;104101.09;2069034;28;20174;-64
2023/02/09 02:59:30;;;;;;;44.20;27.48;;;;;;;-2.83;100.00;104158.72;2063021;28;20206;-64
2023/02/09 03:00:37;;;;;;;44.50;27.65;;;;;;;-2.87;100.00;104156.78;2070890;28;20685;-64
2023/02/09 03:01:42;;;;;;;46.67;27.52;;;;;;;-2.85;100.00;104157.34;2070596;28;20258;-64
2023/02/09 03:02:48;;;;;;;48.92;28.15;;;;;;;-2.86;100.00;104156.53;2064316;28;20680;-64
2023/02/09 03:03:50;;;;;;;46.75;29.17;;;;;;;-2.83;100.00;104166.06;2077781;28;20248;-64
2023/02/09 03:04:55;;;;;;;59.22;29.70;;;;;;;-2.86;100.00;104163.84;2077569;28;20231;-64
2023/02/09 03:05:58;;;;;;;67.68;30.63;;;;;;;-3.01;100.00;104137.41;2067041;28;20223;-65
2023/02/09 03:06:58;;;;;;;49.97;28.58;;;;;;;-3.46;100.00;104079.13;2070572;28;20206;-64
2023/02/09 03:07:58;;;;;;;48.13;28.93;;;;;;;-2.93;100.00;104155.09;2070689;28;20204;-64
2023/02/09 03:08:59;;;;;;;46.70;29.53;;;;;;;-3.33;100.00;104108.56;2071722;28;20184;-64
2023/02/09 03:09:59;;;;;;;50.83;28.90;;;;;;;-3.03;100.00;104160.44;2063997;28;20190;-64
2023/02/09 03:11:00;;;;;;;44.13;30.33;;;;;;;-3.92;100.00;104066.09;2063943;28;20422;-64
2023/02/09 03:12:23;;;;;;;44.90;28.67;;;;;;;-3.21;100.00;104149.91;2067448;28;20264;-64
2023/02/09 03:13:39;;;;;;;47.90;28.65;;;;;;;-3.18;100.00;104162.97;2069096;28;20205;-64
2023/02/09 03:15:00;;;;;;;42.63;27.83;;;;;;;-3.60;100.00;104094.97;2064114;28;20212;-64
2023/02/09 03:16:24;;;;;;;41.10;27.25;;;;;;;-3.20;100.00;104155.09;2062455;28;20195;-64
2023/02/09 03:17:37;;;;;;;43.65;28.48;;;;;;;-3.14;100.00;104156.78;2063664;28;20174;-64
2023/02/09 03:18:45;;;;;;;45.97;27.45;;;;;;;-3.13;100.00;104157.63;2071467;28;20637;-64
2023/02/09 03:19:52;;;;;;;43.20;28.48;;;;;;;-3.10;100.00;104154.38;2070282;28;20214;-64
2023/02/09 03:21:01;;;;;;;41.53;27.55;;;;;;;-3.02;100.00;104154.75;2062565;28;20562;-64
2023/02/09 03:22:06;;;;;;;49.90;29.08;;;;;;;-3.00;100.00;104160.72;2069970;28;20198;-64
2023/02/09 03:23:15;;;;;;;59.28;29.50;;;;;;;-3.62;100.00;104078.16;2069873;28;20237;-64
2023/02/09 03:24:16;;;;;;;48.92;29.25;;;;;;;-2.99;100.00;104162.38;2065396;28;20201;-64
2023/02/09 03:25:28;;;;;;;42.77;27.47;;;;;;;-3.06;100.00;104145.47;2067613;28;20198;-64
2023/02/09 03:26:48;;;;;;;41.05;27.48;;;;;;;-2.97;100.00;104156.69;2071983;28;20193;-64
2023/02/09 03:28:27;;;;;;;39.63;27.30;;;;;;;-3.00;100.00;104159.91;2071766;28;20206;-64
2023/02/09 03:29:29;;;;;;;38.97;25.50;;;;;;;-3.45;100.00;104097.84;2063965;28;20199;-64
2023/02/09 03:30:32;;;;;;;48.90;26.70;;;;;;;-3.82;100.00;104042.69;2063576;28;20233;-64
2023/02/09 03:31:33;;;;;;;53.53;28.33;;;;;;;-3.07;100.00;104153.88;2063922;28;20179;-64
2023/02/09 03:32:39;;;;;;;57.55;29.02;;;;;;;-3.31;100.00;104138.94;2070562;28;20224;-64
2023/02/09 03:33:40;;;;;;;77.10;29.40;;;;;;;-3.11;100.00;104152.75;2070304;28;20573;-64
2023/02/09 03:34:41;;;;;;;62.75;28.98;;;;;;;-3.60;100.00;104094.16;2071880;28;20287;-64
2023/02/09 03:35:41;;;;;;;48.20;30.00;;;;;;;-3.18;100.00;104154.84;2071605;28;20194;-64
2023/02/09 03:36:44;;;;;;;53.40;30.70;;;;;;;-3.98;100.00;104032.72;2071280;28;20298;-64
2023/02/09 03:37:44;;;;;;;57.58;33.72;;;;;;;-4.00;100.00;104044.88;2070245;28;20184;-64
2023/02/09 03:38:44;;;;;;;54.63;31.87;;;;;;;-3.36;100.00;104150.56;2070477;28;20190;-64
2023/02/09 03:39:45;;;;;;;56.40;30.07;;;;;;;-3.66;100.00;104109.53;2071716;28;20179;-64
2023/02/09 03:40:45;;;;;;;44.97;30.00;;;;;;;-3.39;100.00;104150.25;2071539;28;20174;-64
2023/02/09 03:41:46;;;;;;;50.33;31.00;;;;;;;-3.35;100.00;104149.50;2070925;28;20201;-64
2023/02/09 03:42:47;;;;;;;47.63;29.77;;;;;;;-3.89;100.00;104066.44;2071318;28;20195;-64
2023/02/09 03:45:07;;;;;;;47.45;29.35;;;;;;;-3.56;100.00;104093.41;2071757;28;20195;-64
2023/02/09 03:46:08;;;;;;;50.07;29.50;;;;;;;-3.72;100.00;104069.91;2071603;28;20197;-64
2023/02/09 03:47:09;;;;;;;52.08;30.35;;;;;;;-3.67;100.00;104069.13;2066980;28;20268;-64
2023/02/09 03:48:09;;;;;;;54.30;29.27;;;;;;;-3.05;100.00;104147.13;2066536;28;20214;-64
2023/02/09 03:49:13;;;;;;;52.73;30.80;;;;;;;-3.00;100.00;104154.47;2071126;28;20688;-64
2023/02/09 03:50:14;;;;;;;53.80;29.05;;;;;;;-3.04;100.00;104147.94;2069882;28;20576;-64
2023/02/09 03:51:15;;;;;;;50.80;29.73;;;;;;;-3.04;100.00;104146.03;2071030;28;20192;-64
2023/02/09 03:52:16;;;;;;;52.90;29.60;;;;;;;-3.10;100.00;104132.66;2072276;28;20174;-64
2023/02/09 03:53:17;;;;;;;48.75;29.08;;;;;;;-3.72;100.00;104040.09;2071011;28;20688;-64
2023/02/09 03:54:17;;;;;;;51.30;28.63;;;;;;;-3.11;100.00;104140.00;2071981;28;20197;-64
2023/02/09 03:55:18;;;;;;;50.20;28.50;;;;;;;-3.11;100.00;104145.44;2071306;28;20198;-64
2023/02/09 03:56:18;;;;;;;45.43;29.90;;;;;;;-4.27;100.00;103952.72;2071422;28;20192;-64
2023/02/09 03:57:18;;;;;;;47.87;29.27;;;;;;;-3.08;100.00;104144.09;2068579;28;20712;-64
2023/02/09 03:58:19;;;;;;;46.47;29.80;;;;;;;-3.14;100.00;104128.84;2065197;28;20223;-64
2023/02/09 03:59:20;;;;;;;47.60;29.20;;;;;;;-3.74;100.00;104030.56;2071099;28;20174;-65
2023/02/09 04:00:20;;;;;;;43.60;28.27;;;;;;;-3.03;100.00;104144.16;2071008;28;20181;-64
2023/02/09 04:01:21;;;;;;;42.63;27.40;;;;;;;-3.02;100.00;104140.34;2071601;28;20193;-64
2023/02/09 04:02:21;;;;;;;42.77;28.33;;;;;;;-3.04;100.00;104140.59;2071595;28;20237;-64
2023/02/09 04:03:22;;;;;;;43.33;27.50;;;;;;;-3.06;100.00;104142.78;2071094;28;20967;-64
2023/02/09 04:04:23;;;;;;;47.67;28.40;;;;;;;-3.04;100.00;104137.88;2071584;28;20197;-64
2023/02/09 04:05:24;;;;;;;55.67;28.08;;;;;;;-3.05;100.00;104133.53;2071391;28;20238;-64
2023/02/09 04:06:25;;;;;;;50.93;28.13;;;;;;;-3.09;100.00;104128.91;2071711;28;20180;-64
2023/02/09 04:07:25;;;;;;;51.47;28.33;;;;;;;-3.93;100.00;104005.69;2070907;28;20733;-64
2023/02/09 04:08:28;;;;;;;51.10;27.80;;;;;;;-3.28;100.00;104131.13;2071639;28;20274;-64
2023/02/09 04:09:29;;;;;;;50.50;27.17;;;;;;;-3.97;100.00;104025.41;2068284;28;20182;-64
2023/02/09 04:10:29;;;;;;;48.47;27.07;;;;;;;-3.31;100.00;104126.22;2071082;28;20294;-64
2023/02/09 04:11:30;;;;;;;44.83;28.10;;;;;;;-4.28;100.00;103961.94;2071598;28;20204;-64
2023/02/09 04:12:31;;;;;;;44.75;26.90;;;;;;;-3.84;100.00;104042.13;2071432;28;20183;-64
2023/02/09 04:13:31;;;;;;;39.80;27.00;;;;;;;-3.32;100.00;104146.28;2069495;28;20200;-64
2023/02/09 04:14:32;;;;;;;40.40;26.30;;;;;;;-4.09;100.00;104000.34;2068582;28;20241;-64
2023/02/09 04:15:32;;;;;;;41.00;26.37;;;;;;;-3.33;100.00;104132.97;2063697;28;20550;-64
2023/02/09 04:16:32;;;;;;;41.63;25.60;;;;;;;-3.35;100.00;104126.97;2071172;28;20186;-64
2023/02/09 04:17:33;;;;;;;43.43;26.50;;;;;;;-3.40;100.00;104127.75;2063814;28;20200;-64
2023/02/09 04:18:33;;;;;;;42.50;26.50;;;;;;;-4.20;100.00;104010.22;2069855;28;20191;-64
2023/02/09 04:19:34;;;;;;;44.97;26.83;;;;;;;-3.40;100.00;104127.75;2071464;28;20338;-64
2023/02/09 04:20:34;;;;;;;41.17;26.30;;;;;;;-3.31;100.00;104136.25;2070602;28;20192;-64
2023/02/09 04:21:36;;;;;;;39.13;25.43;;;;;;;-3.26;100.00;104141.72;2070517;28;20211;-64
2023/02/09 04:22:36;;;;;;;48.03;25.23;;;;;;;-3.30;100.00;104129.72;2070521;28;20176;-64
2023/02/09 04:23:37;;;;;;;46.07;25.60;;;;;;;-3.21;100.00;104130.94;2071426;28;20212;-64
2023/02/09 04:24:37;;;;;;;44.07;24.67;;;;;;;-3.84;100.00;104039.41;2071397;28;20673;-64
2023/02/09 04:25:38;;;;;;;49.03;26.10;;;;;;;-3.49;100.00;104102.13;2064726;28;20185;-64
2023/02/09 04:26:38;;;;;;;47.87;25.77;;;;;;;-3.53;100.00;104097.50;2072560;28;20184;-64
2023/02/09 04:27:38;;;;;;;45.60;26.37;;;;;;;-3.30;100.00;104127.03;2072091;28;20195;-64
2023/02/09 04:28:39;;;;;;;44.23;25.97;;;;;;;-3.33;100.00;104131.06;2073013;28;20196;-64
2023/02/09 04:29:39;;;;;;;42.13;25.40;;;;;;;-3.41;100.00;104117.97;2072617;28;20754;-64
2023/02/09 04:30:42;;;;;;;40.50;25.83;;;;;;;-3.39;100.00;104104.16;2071728;28;20199;-64
2023/02/09 04:31:42;;;;;;;40.78;25.73;;;;;;;-3.75;100.00;104053.31;2065271;28;20181;-64
2023/02/09 04:32:43;;;;;;;45.77;27.27;;;;;;;-3.49;100.00;104080.44;2072517;28;20187;-64
2023/02/09 04:33:43;;;;;;;40.50;26.03;;;;;;;-3.46;100.00;104084.53;2073248;28;20185;-64
2023/02/09 04:34:44;;;;;;;43.33;26.57;;;;;;;-3.62;100.00;104050.22;2073541;28;20191;-64
2023/02/09 04:35:44;;;;;;;43.03;25.87;;;;;;;-3.14;100.00;104120.72;2072797;28;20195;-64
2023/02/09 04:36:44;;;;;;;53.30;27.53;;;;;;;-3.06;100.00;104122.94;2072451;28;20214;-64
2023/02/09 04:37:45;;;;;;;50.00;26.60;;;;;;;-3.15;100.00;104094.63;2072767;28;20242;-64
2023/02/09 04:38:45;;;;;;;45.83;27.53;;;;;;;-3.21;100.00;104090.22;2072124;28;20547;-64
2023/02/09 04:39:46;;;;;;;43.23;26.80;;;;;;;-3.01;100.00;104121.13;2072252;28;20219;-64
2023/02/09 04:40:47;;;;;;;48.30;26.37;;;;;;;-3.03;100.00;104122.44;2064683;28;20231;-64
2023/02/09 04:41:48;;;;;;;48.63;28.05;;;;;;;-3.28;100.00;104089.63;2073581;28;20560;-64
2023/02/09 04:42:48;;;;;;;48.93;27.43;;;;;;;-3.12;100.00;104127.53;2065063;28;20644;-64
2023/02/09 04:43:49;;;;;;;46.60;28.90;;;;;;;-3.38;100.00;104063.19;2071156;28;20195;-64
2023/02/09 04:44:49;;;;;;;52.17;29.27;;;;;;;-2.92;100.00;104126.88;2073162;28;20223;-65
2023/02/09 04:45:50;;;;;;;46.53;30.57;;;;;;;-3.55;100.00;104024.53;2072116;28;20229;-64
2023/02/09 04:46:50;;;;;;;49.47;28.67;;;;;;;-2.84;100.00;104131.81;2073187;28;20185;-64
2023/02/09 04:47:50;;;;;;;43.20;26.53;;;;;;;-2.81;100.00;104132.16;2070822;28;20201;-64
2023/02/09 04:48:51;;;;;;;44.23;29.27;;;;;;;-2.80;100.00;104125.66;2068226;28;20183;-64
2023/02/09 04:49:51;;;;;;;44.80;29.43;;;;;;;-3.18;100.00;104068.81;2072183;28;20660;-64
2023/02/09 04:50:52;;;;;;;47.30;29.03;;;;;;;-2.86;100.00;104128.56;2072141;28;20217;-64
2023/02/09 04:51:53;;;;;;;40.27;28.23;;;;;;;-3.24;100.00;104071.78;2072429;28;20191;-64